Time;durP1;ratioP1;P1;durP2;ratioP2;P2;SDS_P1;SDS_P2;PMS_P1;PMS_P2;Temp;Humidity;BMP_temperature;BMP_pressure;BME280_temperature;BME280_humidity;BME280_pressure;Samples;Min_cycle;Max_cycle;Signal;HPM_P1;HPM_P2
2022/01/21 00:01:37;;;;;;;;;3.25;3.00;;;;;21.19;32.39;103226.06;5062350;28;50969;-53
2022/01/21 00:04:03;;;;;;;;;3.00;2.50;;;;;21.18;32.88;103227.13;5060423;27;51295;-53
2022/01/21 00:06:29;;;;;;;;;2.25;2.25;;;;;21.16;32.85;103221.78;5055275;28;51264;-54
2022/01/21 00:08:54;;;;;;;;;3.75;3.00;;;;;21.15;32.53;103220.03;5054975;28;52046;-53
2022/01/21 00:11:21;;;;;;;;;3.75;3.00;;;;;21.13;32.94;103230.34;5055512;28;51043;-51
2022/01/21 00:13:46;;;;;;;;;1.00;1.00;;;;;21.12;32.52;103223.13;5064672;27;51079;-53
2022/01/21 00:16:16;;;;;;;;;7.75;3.75;;;;;21.11;32.91;103226.06;5074883;27;51341;-53
2022/01/21 00:18:59;;;;;;;;;2.00;2.00;;;;;21.10;32.67;103230.72;5064407;28;51863;-53
2022/01/21 00:32:22;;;;;;;;;5.50;3.00;;;;;21.01;32.62;103210.53;5059424;28;51030;-53
2022/01/21 00:34:48;;;;;;;;;3.00;3.00;;;;;21.00;32.85;103206.06;5073788;27;51186;-53
2022/01/21 00:37:14;;;;;;;;;1.00;1.00;;;;;20.99;32.49;103209.84;5070796;28;51118;-55
2022/01/21 00:39:39;;;;;;;;;5.75;2.75;;;;;20.98;32.47;103212.78;5072473;28;51022;-51
2022/01/21 00:42:30;;;;;;;;;2.25;2.25;;;;;20.97;32.49;103205.53;5076865;28;51202;-55
2022/01/21 00:44:59;;;;;;;;;4.25;3.00;;;;;20.95;32.59;103208.47;5078099;27;51291;-54
2022/01/21 00:47:25;;;;;;;;;3.50;3.50;;;;;20.94;32.94;103197.59;5077436;27;51032;-54
2022/01/21 00:49:51;;;;;;;;;3.50;2.50;;;;;20.92;32.72;103186.75;5059383;28;52053;-55
2022/01/21 00:52:16;;;;;;;;;3.00;3.00;;;;;20.91;32.83;103187.78;5058071;28;51140;-52
2022/01/21 00:54:42;;;;;;;;;3.00;2.00;;;;;20.92;33.23;103202.41;5059487;28;51082;-49
2022/01/21 00:57:08;;;;;;;;;2.50;1.00;;;;;20.90;32.69;103202.59;5058549;28;51259;-54
2022/01/21 00:59:33;;;;;;;;;5.50;2.00;;;;;20.90;32.93;103201.72;5070194;28;51993;-53
2022/01/21 01:01:59;;;;;;;;;5.00;3.00;;;;;20.88;32.61;103207.41;5071951;28;51081;-54
2022/01/21 01:04:25;;;;;;;;;5.00;2.00;;;;;20.87;32.97;103208.44;5058006;28;51141;-52
2022/01/21 01:06:51;;;;;;;;;1.00;1.00;;;;;20.86;33.10;103203.97;5061074;28;51077;-49
2022/01/21 01:09:16;;;;;;;;;3.75;3.00;;;;;20.85;32.54;103201.38;5063331;28;51199;-53
2022/01/21 01:12:07;;;;;;;;;2.00;1.50;;;;;20.84;32.86;103203.28;5064962;28;51111;-51
2022/01/21 01:20:04;;;;;;;;;3.25;1.00;;;;;20.81;32.92;103203.59;5074078;28;51594;-54
2022/01/21 01:27:45;;;;;;;;;3.25;2.00;;;;;20.78;33.05;103195.69;5077172;27;51103;-53
2022/01/21 01:30:17;;;;;;;;;4.50;2.00;;;;;20.75;32.83;103199.63;5071140;27;51880;-51
2022/01/21 01:32:44;;;;;;;;;5.00;3.25;;;;;20.73;32.78;103196.16;5071079;28;51863;-52
2022/01/21 01:35:12;;;;;;;;;1.25;1.25;;;;;20.73;32.91;103196.16;5066896;27;51393;-54
2022/01/21 01:38:07;;;;;;;;;2.00;2.00;;;;;20.72;33.00;103194.44;5076158;27;51206;-53
2022/01/21 01:40:36;;;;;;;;;3.00;1.75;;;;;20.71;32.91;103200.13;5073612;28;51151;-55
2022/01/21 01:51:00;;;;;;;;;3.25;2.25;;;;;20.68;32.89;103200.47;5060240;28;50953;-56
2022/01/21 01:53:28;;;;;;;;;1.75;0.50;;;;;20.67;33.08;103205.13;5058515;28;51295;-53
2022/01/21 01:55:55;;;;;;;;;3.00;2.50;;;;;20.65;33.04;103190.66;5057308;28;51101;-52
2022/01/21 01:58:20;;;;;;;;;2.25;2.25;;;;;20.65;33.01;103201.66;5063921;28;51366;-52
2022/01/21 02:00:45;;;;;;;;;2.00;2.00;;;;;20.64;33.24;103210.97;5060826;28;51972;-54
2022/01/21 02:03:14;;;;;;;;;1.25;1.25;;;;;20.64;32.86;103210.09;5057290;28;51109;-53
2022/01/21 02:05:43;;;;;;;;;1.50;1.50;;;;;20.63;33.43;103211.09;5057157;28;51188;-54
2022/01/21 02:08:10;;;;;;;;;3.50;2.00;;;;;20.61;33.23;103205.75;5067026;28;51081;-52
2022/01/21 02:10:37;;;;;;;;;3.50;1.00;;;;;20.60;32.80;103212.31;5057194;28;52021;-54
2022/01/21 02:13:06;;;;;;;;;4.50;3.00;;;;;20.60;33.09;103217.81;5057047;28;51003;-54
2022/01/21 02:15:41;;;;;;;;;1.00;1.00;;;;;20.59;33.22;103210.59;5058338;28;51249;-55
2022/01/21 02:23:34;;;;;;;;;2.00;2.00;;;;;20.56;33.01;103207.31;5073630;28;51394;-53
2022/01/21 02:26:01;;;;;;;;;2.25;1.75;;;;;20.55;33.10;103211.09;5060247;27;51307;-54
2022/01/21 02:28:26;;;;;;;;;1.50;1.00;;;;;20.54;33.14;103207.47;5068556;27;51212;-54
2022/01/21 02:30:53;;;;;;;;;2.50;1.00;;;;;20.53;32.97;103210.38;5057738;28;51721;-52
2022/01/21 02:33:19;;;;;;;;;3.00;2.00;;;;;20.53;33.00;103211.28;5057905;28;51141;-53
2022/01/21 02:35:44;;;;;;;;;2.00;1.75;;;;;20.52;33.40;103208.66;5057834;28;51927;-52
2022/01/21 02:38:09;;;;;;;;;1.25;1.25;;;;;20.51;33.29;103209.69;5056881;28;51123;-53
2022/01/21 02:40:35;;;;;;;;;1.50;1.25;;;;;20.49;33.21;103204.34;5072947;28;51848;-54
2022/01/21 02:43:00;;;;;;;;;2.75;1.00;;;;;20.49;33.06;103200.72;5056698;28;51141;-51
2022/01/21 02:45:25;;;;;;;;;1.00;1.00;;;;;20.47;33.30;103211.91;5073145;28;51008;-58
2022/01/21 02:47:51;;;;;;;;;1.50;1.00;;;;;20.45;33.27;103206.56;5070369;28;51262;-54
2022/01/21 02:50:16;;;;;;;;;1.75;1.75;;;;;20.45;32.90;103212.09;5058548;27;51061;-55
2022/01/21 02:52:54;;;;;;;;;1.75;1.75;;;;;20.45;33.29;103197.47;5056166;28;51055;-53
2022/01/21 02:55:20;;;;;;;;;1.00;1.00;;;;;20.44;33.03;103195.75;5071513;28;50965;-55
2022/01/21 02:57:45;;;;;;;;;1.00;1.00;;;;;20.43;33.31;103199.53;5068174;27;51074;-55
2022/01/21 03:00:11;;;;;;;;;1.25;1.25;;;;;20.42;32.86;103200.50;5071170;28;51186;-53
2022/01/21 03:02:36;;;;;;;;;1.00;1.00;;;;;20.41;33.39;103213.41;5071399;28;51132;-55
2022/01/21 03:05:07;;;;;;;;;2.00;1.25;;;;;20.39;33.03;103209.09;5057168;28;51036;-54
2022/01/21 03:07:32;;;;;;;;;2.00;1.00;;;;;20.39;33.22;103209.09;5057044;28;50986;-55
2022/01/21 03:09:58;;;;;;;;;1.25;1.25;;;;;20.38;33.30;103213.72;5056093;28;51886;-53
2022/01/21 03:12:23;;;;;;;;;1.25;1.25;;;;;20.38;33.39;103207.38;5056125;28;51005;-54
2022/01/21 03:14:49;;;;;;;;;2.75;1.00;;;;;20.38;33.16;103213.72;5057229;28;51016;-53
2022/01/21 03:17:14;;;;;;;;;1.50;1.50;;;;;20.37;33.07;103213.91;5056170;28;50964;-54
2022/01/21 03:19:39;;;;;;;;;1.50;1.50;;;;;20.36;33.29;103212.19;5061391;28;51092;-53
2022/01/21 03:22:05;;;;;;;;;1.75;1.75;;;;;20.34;33.01;103212.34;5056003;28;51113;-53
2022/01/21 03:24:30;;;;;;;;;1.25;1.25;;;;;20.33;33.30;103218.88;5061412;28;50936;-55
2022/01/21 03:26:56;;;;;;;;;2.50;1.75;;;;;20.34;33.39;103219.75;5064366;27;51153;-54
2022/01/21 03:29:21;;;;;;;;;1.00;1.00;;;;;20.32;33.21;103213.50;5055924;28;50945;-54
2022/01/21 03:31:47;;;;;;;;;3.50;1.25;;;;;20.31;33.59;103223.66;5075071;28;51046;-55
2022/01/21 03:34:12;;;;;;;;;1.00;1.00;;;;;20.31;33.23;103214.53;5074105;28;51594;-50
2022/01/21 03:36:40;;;;;;;;;2.75;2.75;;;;;20.31;33.13;103223.66;5075470;28;51257;-54
2022/01/21 03:39:05;;;;;;;;;1.75;1.75;;;;;20.28;33.43;103217.63;5061874;28;51957;-52
2022/01/21 03:41:30;;;;;;;;;3.75;1.75;;;;;20.28;33.09;103224.00;5076429;27;51210;-52
2022/01/21 03:43:56;;;;;;;;;0.00;0.00;;;;;20.27;33.37;103229.69;5061343;28;52424;-53
2022/01/21 03:46:21;;;;;;;;;1.50;0.25;;;;;20.26;33.26;103226.06;5072508;28;51024;-53
2022/01/21 03:48:49;;;;;;;;;1.25;1.25;;;;;20.25;33.50;103234.47;5070410;28;51606;-53
2022/01/21 03:51:16;;;;;;;;;1.50;1.00;;;;;20.25;33.47;103228.97;5070017;28;51102;-53
2022/01/21 03:53:43;;;;;;;;;3.00;1.25;;;;;20.23;33.30;103231.03;5057365;27;51218;-55
2022/01/21 03:56:08;;;;;;;;;1.00;1.00;;;;;20.23;33.19;103234.66;5060727;28;51131;-52
2022/01/21 03:58:34;;;;;;;;;2.00;1.75;;;;;20.21;33.08;103228.44;5058566;28;51032;-52
2022/01/21 04:00:59;;;;;;;;;0.50;0.50;;;;;20.23;33.28;103220.03;5060745;28;51154;-53
2022/01/21 04:03:25;;;;;;;;;1.00;1.00;;;;;20.21;33.40;103216.56;5056389;28;51179;-53
2022/01/21 04:05:51;;;;;;;;;1.50;1.50;;;;;20.21;33.44;103224.81;5066227;28;51161;-53
2022/01/21 04:08:17;;;;;;;;;2.00;2.00;;;;;20.21;33.31;103233.94;5060310;28;51273;-55
2022/01/21 04:10:44;;;;;;;;;2.00;0.75;;;;;20.18;33.06;103224.13;5068106;28;51384;-53
2022/01/21 04:13:14;;;;;;;;;1.25;1.00;;;;;20.18;33.43;103235.13;5060146;28;50987;-54
2022/01/21 04:15:41;;;;;;;;;1.00;1.00;;;;;20.18;33.55;103229.63;5059147;28;51453;-55
2022/01/21 04:18:07;;;;;;;;;2.00;2.00;;;;;20.16;33.09;103231.69;5078159;28;51693;-55
2022/01/21 04:20:32;;;;;;;;;4.00;1.00;;;;;20.16;33.51;103231.69;5060567;28;51094;-53
2022/01/21 04:22:58;;;;;;;;;3.00;2.25;;;;;20.15;33.26;103242.84;5066641;28;50965;-54
2022/01/21 04:25:23;;;;;;;;;3.00;2.00;;;;;20.14;33.43;103249.38;5078448;28;51038;-53
2022/01/21 04:27:49;;;;;;;;;1.25;1.25;;;;;20.14;33.62;103243.88;5067776;27;52029;-55
2022/01/21 04:30:14;;;;;;;;;2.50;2.00;;;;;20.13;33.38;103248.53;5066636;28;51060;-51
2022/01/21 04:32:39;;;;;;;;;1.25;1.25;;;;;20.12;33.50;103249.56;5076236;28;51659;-55
2022/01/21 04:35:05;;;;;;;;;1.50;1.00;;;;;20.12;33.44;103240.44;5066659;28;51102;-51
2022/01/21 04:37:31;;;;;;;;;3.00;1.00;;;;;20.11;33.42;103242.31;5058528;28;51239;-53
2022/01/21 04:40:10;;;;;;;;;1.25;0.75;;;;;20.11;33.36;103247.84;5060257;28;51112;-53
2022/01/21 04:48:21;;;;;;;;;2.75;1.00;;;;;20.08;33.26;103247.28;5028764;28;51708;-50
2022/01/21 04:51:26;;;;;;;;;0.75;0.75;;;;;20.07;33.25;103242.78;5064987;27;50971;-55
2022/01/21 04:53:39;;;;;;;;;1.00;1.00;;;;;20.06;33.49;103236.44;5074970;28;51039;-53
2022/01/21 04:56:05;;;;;;;;;1.00;1.00;;;;;20.06;33.34;103230.06;5078342;28;50974;-53
2022/01/21 04:58:30;;;;;;;;;3.00;2.00;;;;;20.04;33.63;103235.72;5059717;28;51017;-55
2022/01/21 05:00:56;;;;;;;;;2.00;2.00;;;;;20.05;33.50;103239.34;5074830;28;51146;-54
2022/01/21 05:03:21;;;;;;;;;4.75;3.00;;;;;20.03;33.61;103245.03;5077583;28;51126;-55
2022/01/21 05:05:47;;;;;;;;;0.50;0.50;;;;;20.02;33.16;103245.19;5077881;28;50962;-52
2022/01/21 05:08:23;;;;;;;;;1.50;1.50;;;;;20.02;33.53;103247.94;5074740;28;51784;-55
2022/01/21 05:10:49;;;;;;;;;1.00;1.00;;;;;20.00;33.27;103250.81;5060049;28;51295;-54
2022/01/21 05:13:19;;;;;;;;;2.00;1.00;;;;;19.99;33.47;103251.84;5057911;28;51143;-52
2022/01/21 05:16:10;;;;;;;;;1.75;1.00;;;;;20.00;33.59;103259.06;5059300;28;51383;-54
2022/01/21 05:18:30;;;;;;;;;2.00;0.75;;;;;19.99;33.13;103262.84;5057291;28;51193;-54
2022/01/21 05:20:56;;;;;;;;;2.00;1.00;;;;;19.98;33.14;103252.88;5076192;28;51035;-55
2022/01/21 05:23:23;;;;;;;;;2.25;1.00;;;;;19.98;33.23;103249.25;5073026;28;50977;-55
2022/01/21 05:25:49;;;;;;;;;2.00;1.00;;;;;19.97;33.37;103253.91;5060306;27;51212;-55
2022/01/21 05:28:14;;;;;;;;;1.00;1.00;;;;;19.97;33.52;103253.91;5059300;27;51873;-54
2022/01/21 05:30:39;;;;;;;;;1.00;1.00;;;;;19.96;33.62;103254.94;5066194;28;51010;-54
2022/01/21 05:33:05;;;;;;;;;1.25;1.25;;;;;19.95;33.28;103249.59;5061242;28;51585;-51
2022/01/21 05:35:30;;;;;;;;;0.25;0.25;;;;;19.95;33.49;103263.34;5058721;28;50996;-53
2022/01/21 05:37:55;;;;;;;;;2.00;1.00;;;;;19.94;33.57;103256.13;5062498;28;51061;-54
2022/01/21 05:40:22;;;;;;;;;1.75;1.75;;;;;19.93;33.55;103263.50;5064164;28;51164;-54
2022/01/21 05:42:47;;;;;;;;;2.00;1.00;;;;;19.92;33.34;103267.28;5058889;28;51219;-54
2022/01/21 05:47:57;;;;;;;;;1.00;1.00;;;;;19.92;33.39;103275.53;5069335;28;51120;-50
2022/01/21 05:50:22;;;;;;;;;2.75;2.75;;;;;19.92;33.29;103269.19;5060957;28;51234;-53
2022/01/21 05:52:48;;;;;;;;;2.50;2.50;;;;;19.90;32.72;103283.06;5058795;28;51116;-53
2022/01/21 05:55:16;;;;;;;;;3.75;2.00;;;;;19.88;32.33;103277.72;5066203;28;51115;-55
2022/01/21 05:57:42;;;;;;;;;2.00;2.00;;;;;19.84;31.71;103289.22;5058457;28;51014;-55
2022/01/21 06:00:10;;;;;;;;;3.50;2.75;;;;;19.79;31.93;103283.31;5059145;28;51208;-54
2022/01/21 06:02:36;;;;;;;;;1.50;1.25;;;;;19.77;31.54;103279.88;5071955;28;51205;-53
2022/01/21 06:05:01;;;;;;;;;3.75;2.00;;;;;19.75;31.71;103284.69;5057439;28;51131;-50
2022/01/21 06:07:27;;;;;;;;;4.00;1.50;;;;;19.78;31.83;103278.84;5076577;28;52612;-53
2022/01/21 06:09:52;;;;;;;;;5.00;2.75;;;;;19.84;31.64;103291.97;5076912;28;51095;-53
2022/01/21 06:12:17;;;;;;;;;1.75;1.00;;;;;19.93;31.77;103291.03;5060076;27;51017;-52
2022/01/21 06:14:43;;;;;;;;;5.00;2.50;;;;;20.03;31.75;103289.03;5057434;28;51196;-54
2022/01/21 06:17:11;;;;;;;;;1.75;1.00;;;;;20.13;31.90;103280.69;5056919;28;51933;-54
2022/01/21 06:19:37;;;;;;;;;4.25;1.00;;;;;20.22;32.13;103296.22;5065357;28;51380;-53
2022/01/21 06:22:03;;;;;;;;;1.00;1.00;;;;;20.29;31.72;103288.16;5075421;28;51232;-54
2022/01/21 06:24:28;;;;;;;;;1.00;0.75;;;;;20.38;31.61;103295.47;5076604;28;51048;-53
2022/01/21 06:26:59;;;;;;;;;3.00;1.00;;;;;20.47;31.86;103289.00;5071749;27;51035;-53
2022/01/21 06:29:24;;;;;;;;;2.00;2.00;;;;;20.57;31.95;103289.75;5061149;28;51415;-51
2022/01/21 06:31:49;;;;;;;;;2.75;0.75;;;;;20.66;31.50;103282.41;5075639;28;51059;-54
2022/01/21 06:34:15;;;;;;;;;1.50;1.50;;;;;20.73;31.59;103286.19;5076725;27;51314;-54
2022/01/21 06:36:40;;;;;;;;;1.25;1.25;;;;;20.80;31.55;103286.41;5074742;28;51697;-51
2022/01/21 06:39:05;;;;;;;;;2.00;0.25;;;;;20.86;31.89;103275.59;5076193;28;51104;-52
2022/01/21 06:41:32;;;;;;;;;4.00;2.00;;;;;20.90;32.01;103274.22;5072334;28;50950;-52
2022/01/21 06:43:57;;;;;;;;;2.50;1.50;;;;;20.96;32.36;103289.25;5060453;28;51117;-51
2022/01/21 06:46:23;;;;;;;;;2.00;2.00;;;;;21.03;31.91;103288.38;5067724;28;51245;-53
2022/01/21 06:48:48;;;;;;;;;5.50;1.50;;;;;21.10;31.61;103304.25;5076259;28;51236;-54
2022/01/21 06:51:13;;;;;;;;;1.50;0.75;;;;;21.16;31.81;103293.44;5062540;28;51134;-54
2022/01/21 06:53:39;;;;;;;;;1.75;1.75;;;;;21.21;31.99;103293.78;5056442;28;51021;-55
2022/01/21 06:56:04;;;;;;;;;3.00;2.00;;;;;21.25;31.61;103297.06;5068143;28;51043;-50
2022/01/21 06:58:29;;;;;;;;;1.50;1.00;;;;;21.29;32.01;103307.63;5071209;28;51053;-53
2022/01/21 07:00:55;;;;;;;;;3.75;2.00;;;;;21.35;32.12;103319.00;5057569;28;51081;-54
2022/01/21 07:03:20;;;;;;;;;2.00;1.25;;;;;21.38;32.21;103314.03;5064082;28;51380;-55
2022/01/21 07:05:46;;;;;;;;;2.25;2.00;;;;;21.44;32.38;103315.22;5065435;28;51712;-52
2022/01/21 07:08:14;;;;;;;;;1.50;1.00;;;;;21.48;32.52;103323.00;5073018;28;51147;-55
2022/01/21 07:10:40;;;;;;;;;1.00;1.00;;;;;21.53;32.51;103323.34;5075981;27;51136;-54
2022/01/21 07:13:05;;;;;;;;;1.00;1.00;;;;;21.58;32.63;103326.47;5074167;28;51088;-54
2022/01/21 07:15:31;;;;;;;;;0.75;0.75;;;;;21.62;32.19;103335.25;5060406;28;51723;-55
2022/01/21 07:17:56;;;;;;;;;1.50;1.50;;;;;21.66;32.90;103328.34;5070718;28;50977;-53
2022/01/21 07:20:22;;;;;;;;;2.50;2.00;;;;;21.69;32.57;103336.31;5056453;28;51049;-54
2022/01/21 07:22:48;;;;;;;;;1.25;1.00;;;;;21.73;32.22;103329.41;5057321;28;51208;-54
2022/01/21 07:25:14;;;;;;;;;1.00;1.00;;;;;21.78;31.97;103334.41;5056931;28;51120;-53
2022/01/21 07:27:41;;;;;;;;;1.25;1.25;;;;;21.82;32.10;103335.81;5077074;27;51032;-53
2022/01/21 07:30:07;;;;;;;;;1.75;1.50;;;;;21.86;31.92;103342.69;5075495;27;51033;-55
2022/01/21 07:32:33;;;;;;;;;1.50;1.50;;;;;21.89;32.52;103340.47;5074007;28;51138;-55
2022/01/21 07:34:58;;;;;;;;;4.25;1.00;;;;;21.94;32.13;103344.59;5064866;28;51095;-54
2022/01/21 07:37:23;;;;;;;;;4.00;2.00;;;;;21.97;32.42;103349.75;5062988;28;51104;-55
2022/01/21 07:39:49;;;;;;;;;3.50;1.25;;;;;21.99;32.07;103342.16;5056532;28;51184;-56
2022/01/21 07:42:15;;;;;;;;;2.25;2.00;;;;;22.03;32.35;103346.31;5058106;28;51140;-55
2022/01/21 07:44:40;;;;;;;;;2.00;2.00;;;;;22.06;31.97;103349.63;5054256;28;51179;-54
2022/01/21 07:47:06;;;;;;;;;2.50;2.00;;;;;22.09;31.85;103348.41;5071598;28;51180;-54
2022/01/21 07:49:32;;;;;;;;;3.25;2.00;;;;;22.11;31.84;103352.75;5065309;28;51057;-55
2022/01/21 07:51:58;;;;;;;;;4.00;1.00;;;;;22.16;32.17;103360.50;5060930;28;51387;-55
2022/01/21 07:54:23;;;;;;;;;4.50;3.50;;;;;22.18;32.16;103362.03;5062740;28;52031;-55
2022/01/21 07:56:49;;;;;;;;;6.00;3.00;;;;;22.21;31.74;103362.75;5058720;28;51180;-51
2022/01/21 07:59:15;;;;;;;;;5.75;4.00;;;;;22.21;31.69;103365.50;5060938;28;51188;-51
2022/01/21 08:01:41;;;;;;;;;6.00;4.25;;;;;22.21;31.03;103374.66;5065005;28;51422;-54
2022/01/21 08:04:07;;;;;;;;;5.50;4.00;;;;;22.23;31.73;103368.94;5053883;28;51113;-56
2022/01/21 08:06:33;;;;;;;;;7.75;4.00;;;;;22.26;31.81;103372.22;5059130;27;51181;-54
2022/01/21 08:08:59;;;;;;;;;4.00;3.75;;;;;22.30;31.90;103375.47;5066153;28;51270;-49
2022/01/21 08:11:25;;;;;;;;;3.75;2.00;;;;;22.33;31.45;103381.53;5065236;28;51404;-55
2022/01/21 08:13:51;;;;;;;;;2.50;2.50;;;;;22.37;31.98;103380.16;5067440;27;51124;-52
2022/01/21 08:16:17;;;;;;;;;3.25;2.75;;;;;22.42;31.75;103376.88;5068804;28;51264;-54
2022/01/21 08:18:42;;;;;;;;;4.00;3.25;;;;;22.47;32.20;103379.97;5056520;28;51208;-53
2022/01/21 08:21:08;;;;;;;;;4.25;2.00;;;;;22.51;32.43;103380.47;5070889;28;51244;-51
2022/01/21 08:23:34;;;;;;;;;3.00;3.00;;;;;22.55;31.84;103379.97;5054398;28;51581;-52
2022/01/21 08:25:59;;;;;;;;;4.00;3.00;;;;;22.59;32.32;103377.69;5057199;27;51133;-54
2022/01/21 08:28:26;;;;;;;;;5.50;2.75;;;;;22.63;31.76;103385.47;5073635;27;51620;-54
2022/01/21 08:30:51;;;;;;;;;0.25;0.25;;;;;22.68;32.03;103384.94;5072812;27;51180;-54
2022/01/21 08:33:16;;;;;;;;;2.75;1.00;;;;;22.72;32.03;103383.56;5068395;28;53057;-53
2022/01/21 08:35:42;;;;;;;;;1.75;1.75;;;;;22.75;32.42;103381.28;5056862;27;51311;-51
2022/01/21 08:38:07;;;;;;;;;5.50;3.00;;;;;22.80;32.42;103379.88;5073999;28;51216;-53
2022/01/21 08:40:34;;;;;;;;;4.75;4.75;;;;;22.85;32.17;103388.56;5071088;28;51076;-52
2022/01/21 08:42:59;;;;;;;;;4.00;4.00;;;;;22.89;32.15;103387.16;5068200;28;51003;-54
2022/01/21 08:45:26;;;;;;;;;3.75;3.00;;;;;22.93;32.24;103385.78;5056336;28;51045;-54
2022/01/21 08:47:51;;;;;;;;;3.00;3.00;;;;;22.97;32.02;103389.91;5071591;27;51239;-55
2022/01/21 08:50:18;;;;;;;;;2.00;2.00;;;;;23.02;31.97;103393.84;5071633;28;50984;-52
2022/01/21 08:52:45;;;;;;;;;3.00;3.00;;;;;23.08;32.18;103383.13;5058440;28;52990;-52
2022/01/21 08:55:19;;;;;;;;;3.00;3.00;;;;;23.12;32.29;103381.72;5068407;27;51163;-52
2022/01/21 08:57:47;;;;;;;;;3.25;3.25;;;;;23.16;32.08;103383.94;5067648;28;51107;-53
2022/01/21 09:00:19;;;;;;;;;6.75;3.00;;;;;23.23;32.16;103375.78;5076804;28;51126;-52
2022/01/21 09:02:45;;;;;;;;;4.50;4.25;;;;;23.27;31.69;103382.69;5073333;27;51271;-49
2022/01/21 09:05:11;;;;;;;;;1.75;1.75;;;;;23.32;32.10;103385.75;5064741;28;51183;-53
2022/01/21 09:07:37;;;;;;;;;4.00;3.00;;;;;23.36;32.05;103389.03;5058503;28;51325;-54
2022/01/21 09:10:04;;;;;;;;;2.75;2.75;;;;;23.40;32.18;103382.97;5057510;28;51093;-51
2022/01/21 09:12:30;;;;;;;;;3.50;3.25;;;;;23.43;31.77;103384.50;5064048;28;52728;-54
2022/01/21 09:14:56;;;;;;;;;4.00;3.00;;;;;23.47;31.89;103377.56;5058167;28;51105;-53
2022/01/21 09:17:21;;;;;;;;;2.00;2.00;;;;;23.45;32.00;103388.81;5072235;28;51032;-51
2022/01/21 09:19:46;;;;;;;;;5.75;3.00;;;;;23.43;32.55;103396.41;5067344;28;51321;-53
2022/01/21 09:22:12;;;;;;;;;3.25;1.00;;;;;23.39;31.82;103399.75;5057607;28;50958;-52
2022/01/21 09:24:37;;;;;;;;;3.25;3.00;;;;;23.35;31.87;103403.91;5061966;28;50923;-54
2022/01/21 09:27:04;;;;;;;;;4.75;3.00;;;;;23.30;31.88;103399.78;5073503;27;51126;-55
2022/01/21 09:29:30;;;;;;;;;1.25;1.25;;;;;23.26;32.15;103403.09;5075614;28;51267;-55
2022/01/21 09:31:56;;;;;;;;;7.25;5.75;;;;;23.22;31.95;103408.09;5067525;28;52142;-54
2022/01/21 09:34:24;;;;;;;;;4.50;4.00;;;;;23.19;31.73;103419.53;5074096;27;51297;-55
2022/01/21 09:36:50;;;;;;;;;6.00;6.00;;;;;23.16;32.38;103427.31;5062500;28;51078;-56
2022/01/21 09:39:15;;;;;;;;;3.75;3.00;;;;;23.12;31.93;103425.94;5077454;28;50996;-51
2022/01/21 09:41:42;;;;;;;;;6.25;3.25;;;;;23.07;32.34;103422.88;5058855;28;51649;-54
2022/01/21 09:44:16;;;;;;;;;7.00;4.75;;;;;23.04;32.03;103427.72;5065667;28;51434;-52
2022/01/21 09:46:49;;;;;;;;;4.75;4.00;;;;;23.02;32.78;103434.44;5066403;28;51098;-51
2022/01/21 09:49:27;;;;;;;;;4.25;4.25;;;;;22.99;32.68;103438.44;5062533;27;51079;-52
2022/01/21 09:52:01;;;;;;;;;4.75;2.75;;;;;22.96;33.01;103447.09;5074426;28;51061;-52
2022/01/21 09:54:33;;;;;;;;;7.00;3.00;;;;;22.95;33.24;103461.09;5072756;28;51147;-53
2022/01/21 09:56:59;;;;;;;;;5.50;3.25;;;;;22.92;32.70;103453.13;5076228;28;50974;-50
2022/01/21 09:59:27;;;;;;;;;6.50;4.00;;;;;22.91;32.88;103448.63;5069409;27;51361;-54
2022/01/21 10:01:57;;;;;;;;;3.75;3.50;;;;;22.88;33.39;103444.34;5086707;27;51674;-53
2022/01/21 10:04:26;;;;;;;;;3.50;3.00;;;;;22.87;33.45;103456.44;5056758;28;51126;-53
2022/01/21 10:06:54;;;;;;;;;6.50;5.25;;;;;22.85;33.22;103455.75;5066328;28;51228;-53
2022/01/21 10:09:21;;;;;;;;;3.50;3.00;;;;;22.83;33.21;103457.81;5073351;28;51479;-49
2022/01/21 10:11:50;;;;;;;;;10.25;4.00;;;;;22.83;33.39;103456.94;5066807;28;51778;-54
2022/01/21 10:14:19;;;;;;;;;5.00;4.00;;;;;22.80;33.84;103449.84;5066791;28;50976;-54
2022/01/21 10:16:46;;;;;;;;;6.00;3.25;;;;;22.79;33.55;103461.94;5059014;28;51180;-52
2022/01/21 10:19:11;;;;;;;;;4.75;3.00;;;;;22.77;33.57;103456.59;5060078;28;51180;-54
2022/01/21 10:21:42;;;;;;;;;4.50;4.00;;;;;22.76;33.35;103468.69;5066924;28;51813;-54
2022/01/21 10:24:10;;;;;;;;;6.25;3.00;;;;;22.75;33.19;103460.56;5069434;27;51072;-54
2022/01/21 10:26:46;;;;;;;;;5.00;4.00;;;;;22.74;33.35;103459.72;5056774;27;51157;-56
2022/01/21 10:29:11;;;;;;;;;4.50;4.50;;;;;22.74;33.21;103453.31;5056828;27;51355;-52
2022/01/21 10:31:50;;;;;;;;;3.50;3.25;;;;;22.74;33.25;103458.84;5065572;28;51750;-53
2022/01/21 10:34:30;;;;;;;;;4.25;3.75;;;;;22.72;33.26;103461.78;5075322;28;51271;-57
2022/01/21 10:37:06;;;;;;;;;4.75;4.00;;;;;22.71;33.97;103464.69;5064168;28;51227;-51
2022/01/21 10:39:34;;;;;;;;;5.00;3.00;;;;;22.69;33.54;103475.94;5074197;28;51336;-54
2022/01/21 10:42:00;;;;;;;;;5.75;4.00;;;;;22.68;33.60;103456.75;5074801;28;52943;-56
2022/01/21 10:44:30;;;;;;;;;3.25;2.75;;;;;22.66;34.49;103467.13;5061384;28;51252;-56
2022/01/21 10:47:11;;;;;;;;;8.75;5.00;;;;;22.65;34.54;103457.13;5069820;28;51339;-55
2022/01/21 10:49:39;;;;;;;;;6.75;4.25;;;;;22.63;34.27;103456.44;5059938;28;51152;-57
2022/01/21 10:52:06;;;;;;;;;5.75;5.50;;;;;22.60;33.79;103463.16;5069014;28;51757;-55
2022/01/21 10:54:32;;;;;;;;;6.00;4.75;;;;;22.58;34.13;103458.84;5074984;28;51393;-54
2022/01/21 10:57:03;;;;;;;;;8.00;6.00;;;;;22.54;33.17;103443.66;5055713;28;51371;-59
2022/01/21 11:00:09;;;;;;;;;7.50;4.00;;;;;22.51;33.41;103442.13;5068449;28;51131;-56
2022/01/21 11:02:47;;;;;;;;;8.00;7.25;;;;;22.49;32.86;103444.16;5042364;28;51960;-53
2022/01/21 11:05:24;;;;;;;;;6.75;6.75;;;;;22.46;33.04;103437.09;5060104;28;51952;-56
2022/01/21 11:08:02;;;;;;;;;8.75;7.75;;;;;22.44;33.21;103438.31;5072447;27;51039;-57
2022/01/21 11:10:36;;;;;;;;;5.00;3.75;;;;;22.42;32.68;103432.97;5063453;28;50978;-55
2022/01/21 11:13:18;;;;;;;;;11.00;6.25;;;;;22.41;33.11;103433.16;5054612;28;51848;-55
2022/01/21 11:15:59;;;;;;;;;7.00;6.00;;;;;22.40;32.58;103434.16;5063007;28;50946;-56
2022/01/21 11:18:28;;;;;;;;;7.00;5.75;;;;;22.38;32.61;103437.09;5060273;27;51380;-54
2022/01/21 11:21:04;;;;;;;;;7.00;5.50;;;;;22.37;32.81;103432.63;5072380;27;51251;-56
2022/01/21 11:23:32;;;;;;;;;5.75;3.50;;;;;22.36;32.71;103428.13;5070665;28;51199;-57
2022/01/21 11:26:03;;;;;;;;;5.50;5.00;;;;;22.35;33.20;103420.88;5075296;27;51296;-57
2022/01/21 11:28:45;;;;;;;;;10.50;6.75;;;;;22.33;32.71;103431.25;5064291;27;51134;-56
2022/01/21 11:31:12;;;;;;;;;6.00;5.00;;;;;22.32;32.80;103425.91;5062204;28;51177;-56
2022/01/21 11:33:38;;;;;;;;;4.25;4.00;;;;;22.29;32.62;103424.31;5065333;28;51159;-56
2022/01/21 11:36:05;;;;;;;;;6.50;4.25;;;;;22.29;33.16;103429.00;5074193;28;51417;-58
2022/01/21 11:38:35;;;;;;;;;6.25;4.25;;;;;22.27;32.80;103431.94;5063034;28;51146;-57
2022/01/21 11:41:02;;;;;;;;;5.75;4.00;;;;;22.27;32.87;103433.81;5066118;28;51259;-56
2022/01/21 11:43:30;;;;;;;;;7.00;6.00;;;;;22.25;33.93;103427.63;5054520;28;51061;-57
2022/01/21 11:50:59;;;;;;;;;8.25;5.75;;;;;22.25;34.08;103422.97;5055773;28;51525;-55
2022/01/21 11:53:45;;;;;;;;;6.00;4.75;;;;;22.25;34.45;103416.56;5054731;28;51680;-57
2022/01/21 11:56:28;;;;;;;;;4.75;3.50;;;;;22.23;34.07;103422.28;5057326;28;51377;-54
2022/01/21 11:59:11;;;;;;;;;3.75;3.75;;;;;22.25;33.92;103413.81;5062808;28;51124;-55
2022/01/21 12:01:47;;;;;;;;;5.25;5.00;;;;;22.24;34.05;103420.38;5055546;28;50960;-55
2022/01/21 12:04:15;;;;;;;;;5.00;4.25;;;;;22.22;34.02;103412.28;5066152;28;52021;-51
2022/01/21 12:06:40;;;;;;;;;8.50;3.25;;;;;22.21;34.63;103424.34;5069801;28;51207;-56
2022/01/21 12:09:08;;;;;;;;;3.25;3.25;;;;;22.21;34.74;103418.84;5054047;28;51494;-53
2022/01/21 12:11:37;;;;;;;;;5.25;4.75;;;;;22.20;34.61;103414.34;5054433;28;50932;-56
2022/01/21 12:14:35;;;;;;;;;4.50;3.50;;;;;22.19;34.04;103410.69;5061979;28;51065;-55
2022/01/21 12:17:14;;;;;;;;;4.25;4.00;;;;;22.19;34.48;103412.59;5057085;28;51617;-55